Hlavní strana
METAR-TAF:

METAR-TAF

Letiště :

Passo Rolle, Itálie

zeměpisná šířka: 46-18N, zeměpisná délka: 011-47E, výška: 2004 m

Aktuální stav počasí

Zpráva byla vytvořena před 31 minutami, v 07:55 UTC
Jihovýchodní vítr 11 kt
Teplota 16°C
Vlhkost vzduchu 68%
Tlak 1025 hPa
Viditelnost 10 km a více
Žádná oblačnost pod 1500 m, nevyskytují se cumulonimby.

METAR: LIVR 190755Z 13011KT CAVOK 16/10 Q1025 RMK BKN BKN170 MON LIB VIS MIN 9999

Čas: 10:26 (08:26 UTC)


TAF: chybějící

Stav a předpovědi počasí z více než 4 000 letišť (zprávy METAR a TAF).

Červené a žluté tečky na mapě představují dostupné meteorologické stanice.

Když kurzor umístíte na tečku, zobrazí se název stanice.

Pak kliknutím zobrazíte stav a předpověď počasí.

Chcete-li změnit mapu, kliknutím na zelené tlačítko se znaménkem +mapu přiblížíte, kliknutím na zelené tlačítko se znaménkem – mapu oddálíte a kliknutím na zelené šipky přejdete na sousední mapy.


METAR-TAF: